sensor_id;sensor_type;location;lat;lon;timestamp;P1;durP1;ratioP1;P2;durP2;ratioP2
13085;SDS011;6609;49.882;8.664;2022-07-21T00:01:24;14.00;;;11.57;;
13085;SDS011;6609;49.882;8.664;2022-07-21T00:03:51;14.13;;;10.73;;
13085;SDS011;6609;49.882;8.664;2022-07-21T00:06:18;14.90;;;11.13;;
13085;SDS011;6609;49.882;8.664;2022-07-21T00:08:44;13.63;;;9.87;;
13085;SDS011;6609;49.882;8.664;2022-07-21T00:11:11;14.30;;;9.60;;
13085;SDS011;6609;49.882;8.664;2022-07-21T00:13:38;15.57;;;10.40;;
13085;SDS011;6609;49.882;8.664;2022-07-21T00:16:07;12.80;;;10.10;;
13085;SDS011;6609;49.882;8.664;2022-07-21T00:18:34;12.17;;;10.70;;
13085;SDS011;6609;49.882;8.664;2022-07-21T00:21:01;11.80;;;9.97;;
13085;SDS011;6609;49.882;8.664;2022-07-21T00:23:28;12.27;;;9.03;;
13085;SDS011;6609;49.882;8.664;2022-07-21T00:25:55;13.90;;;9.63;;
13085;SDS011;6609;49.882;8.664;2022-07-21T00:28:21;12.07;;;9.70;;
13085;SDS011;6609;49.882;8.664;2022-07-21T00:30:48;14.40;;;10.37;;
13085;SDS011;6609;49.882;8.664;2022-07-21T00:33:16;12.57;;;10.53;;
13085;SDS011;6609;49.882;8.664;2022-07-21T00:35:43;12.47;;;10.57;;
13085;SDS011;6609;49.882;8.664;2022-07-21T00:38:10;13.77;;;9.33;;
13085;SDS011;6609;49.882;8.664;2022-07-21T00:40:37;11.70;;;10.27;;
13085;SDS011;6609;49.882;8.664;2022-07-21T00:43:04;11.03;;;9.93;;
13085;SDS011;6609;49.882;8.664;2022-07-21T00:45:31;11.57;;;9.47;;
13085;SDS011;6609;49.882;8.664;2022-07-21T00:47:58;11.03;;;9.80;;
13085;SDS011;6609;49.882;8.664;2022-07-21T00:50:26;13.00;;;9.53;;
13085;SDS011;6609;49.882;8.664;2022-07-21T00:52:53;13.27;;;9.60;;
13085;SDS011;6609;49.882;8.664;2022-07-21T00:55:20;11.17;;;9.13;;
13085;SDS011;6609;49.882;8.664;2022-07-21T00:57:49;13.87;;;10.20;;
13085;SDS011;6609;49.882;8.664;2022-07-21T01:00:17;15.00;;;10.00;;
13085;SDS011;6609;49.882;8.664;2022-07-21T01:02:47;12.30;;;10.60;;
13085;SDS011;6609;49.882;8.664;2022-07-21T01:05:15;14.83;;;10.97;;
13085;SDS011;6609;49.882;8.664;2022-07-21T01:07:45;13.80;;;10.07;;
13085;SDS011;6609;49.882;8.664;2022-07-21T01:10:14;11.87;;;10.37;;
13085;SDS011;6609;49.882;8.664;2022-07-21T01:12:41;17.13;;;10.70;;
13085;SDS011;6609;49.882;8.664;2022-07-21T01:15:09;13.67;;;10.30;;
13085;SDS011;6609;49.882;8.664;2022-07-21T01:17:37;12.77;;;10.20;;
13085;SDS011;6609;49.882;8.664;2022-07-21T01:20:05;12.27;;;10.63;;
13085;SDS011;6609;49.882;8.664;2022-07-21T01:22:36;13.67;;;10.80;;
13085;SDS011;6609;49.882;8.664;2022-07-21T01:25:04;15.33;;;10.57;;
13085;SDS011;6609;49.882;8.664;2022-07-21T01:27:32;15.80;;;10.83;;
13085;SDS011;6609;49.882;8.664;2022-07-21T01:29:59;15.57;;;12.20;;
13085;SDS011;6609;49.882;8.664;2022-07-21T01:32:26;16.27;;;11.67;;
13085;SDS011;6609;49.882;8.664;2022-07-21T01:34:53;16.30;;;13.00;;
13085;SDS011;6609;49.882;8.664;2022-07-21T01:37:20;18.80;;;13.47;;
13085;SDS011;6609;49.882;8.664;2022-07-21T01:39:49;19.13;;;13.97;;
13085;SDS011;6609;49.882;8.664;2022-07-21T01:42:34;15.40;;;13.33;;
13085;SDS011;6609;49.882;8.664;2022-07-21T01:45:01;18.83;;;14.37;;
13085;SDS011;6609;49.882;8.664;2022-07-21T01:47:29;18.63;;;14.43;;
13085;SDS011;6609;49.882;8.664;2022-07-21T01:49:56;16.73;;;13.87;;
13085;SDS011;6609;49.882;8.664;2022-07-21T01:52:23;17.57;;;14.00;;
13085;SDS011;6609;49.882;8.664;2022-07-21T01:54:51;21.80;;;16.57;;
13085;SDS011;6609;49.882;8.664;2022-07-21T01:57:18;20.87;;;15.10;;
13085;SDS011;6609;49.882;8.664;2022-07-21T01:59:44;20.63;;;16.60;;
13085;SDS011;6609;49.882;8.664;2022-07-21T02:02:12;18.47;;;15.37;;
13085;SDS011;6609;49.882;8.664;2022-07-21T02:04:38;21.37;;;16.63;;
13085;SDS011;6609;49.882;8.664;2022-07-21T02:07:05;21.87;;;17.43;;
13085;SDS011;6609;49.882;8.664;2022-07-21T02:09:32;21.63;;;16.53;;
13085;SDS011;6609;49.882;8.664;2022-07-21T02:12:00;22.03;;;16.97;;
13085;SDS011;6609;49.882;8.664;2022-07-21T02:14:27;23.87;;;16.23;;
13085;SDS011;6609;49.882;8.664;2022-07-21T02:16:54;18.33;;;16.00;;
13085;SDS011;6609;49.882;8.664;2022-07-21T02:19:20;20.97;;;16.80;;
13085;SDS011;6609;49.882;8.664;2022-07-21T02:21:48;20.23;;;15.97;;
13085;SDS011;6609;49.882;8.664;2022-07-21T02:24:14;21.27;;;16.10;;
13085;SDS011;6609;49.882;8.664;2022-07-21T02:26:41;19.37;;;15.47;;
13085;SDS011;6609;49.882;8.664;2022-07-21T02:29:09;19.80;;;16.33;;
13085;SDS011;6609;49.882;8.664;2022-07-21T02:31:36;18.53;;;15.60;;
13085;SDS011;6609;49.882;8.664;2022-07-21T02:34:03;20.10;;;15.97;;
13085;SDS011;6609;49.882;8.664;2022-07-21T02:36:31;21.40;;;15.17;;
13085;SDS011;6609;49.882;8.664;2022-07-21T02:38:58;17.43;;;14.53;;
13085;SDS011;6609;49.882;8.664;2022-07-21T02:41:25;22.63;;;16.07;;
13085;SDS011;6609;49.882;8.664;2022-07-21T02:43:52;17.73;;;15.27;;
13085;SDS011;6609;49.882;8.664;2022-07-21T02:46:20;18.33;;;15.07;;
13085;SDS011;6609;49.882;8.664;2022-07-21T02:48:47;17.57;;;15.13;;
13085;SDS011;6609;49.882;8.664;2022-07-21T02:51:13;17.43;;;14.33;;
13085;SDS011;6609;49.882;8.664;2022-07-21T02:53:40;17.90;;;14.73;;
13085;SDS011;6609;49.882;8.664;2022-07-21T02:56:07;15.50;;;13.43;;
13085;SDS011;6609;49.882;8.664;2022-07-21T02:58:34;20.93;;;13.77;;
13085;SDS011;6609;49.882;8.664;2022-07-21T03:01:02;18.17;;;14.80;;
13085;SDS011;6609;49.882;8.664;2022-07-21T03:03:33;18.63;;;14.80;;
13085;SDS011;6609;49.882;8.664;2022-07-21T03:06:01;17.63;;;13.93;;
13085;SDS011;6609;49.882;8.664;2022-07-21T03:08:28;18.20;;;13.50;;
13085;SDS011;6609;49.882;8.664;2022-07-21T03:10:55;19.10;;;13.20;;
13085;SDS011;6609;49.882;8.664;2022-07-21T03:13:22;20.03;;;14.00;;
13085;SDS011;6609;49.882;8.664;2022-07-21T03:15:49;17.53;;;13.13;;
13085;SDS011;6609;49.882;8.664;2022-07-21T03:18:16;16.67;;;13.27;;
13085;SDS011;6609;49.882;8.664;2022-07-21T03:20:44;16.40;;;13.67;;
13085;SDS011;6609;49.882;8.664;2022-07-21T03:23:11;14.23;;;11.53;;
13085;SDS011;6609;49.882;8.664;2022-07-21T03:25:38;14.97;;;11.53;;
13085;SDS011;6609;49.882;8.664;2022-07-21T03:28:05;13.73;;;10.63;;
13085;SDS011;6609;49.882;8.664;2022-07-21T03:30:32;12.30;;;10.90;;
13085;SDS011;6609;49.882;8.664;2022-07-21T03:32:59;12.67;;;9.77;;
13085;SDS011;6609;49.882;8.664;2022-07-21T03:35:26;10.70;;;9.20;;
13085;SDS011;6609;49.882;8.664;2022-07-21T03:37:55;13.27;;;9.73;;
13085;SDS011;6609;49.882;8.664;2022-07-21T03:40:23;12.07;;;9.40;;
13085;SDS011;6609;49.882;8.664;2022-07-21T03:42:51;10.40;;;7.97;;
13085;SDS011;6609;49.882;8.664;2022-07-21T03:45:19;10.13;;;7.83;;
13085;SDS011;6609;49.882;8.664;2022-07-21T03:47:47;8.00;;;7.03;;
13085;SDS011;6609;49.882;8.664;2022-07-21T03:50:14;8.17;;;6.57;;
13085;SDS011;6609;49.882;8.664;2022-07-21T03:52:42;10.50;;;7.13;;
13085;SDS011;6609;49.882;8.664;2022-07-21T03:55:10;7.30;;;5.87;;
13085;SDS011;6609;49.882;8.664;2022-07-21T03:57:41;10.77;;;5.90;;
13085;SDS011;6609;49.882;8.664;2022-07-21T04:00:10;9.70;;;6.43;;
13085;SDS011;6609;49.882;8.664;2022-07-21T04:02:40;6.70;;;5.40;;
13085;SDS011;6609;49.882;8.664;2022-07-21T04:05:08;8.23;;;6.67;;
13085;SDS011;6609;49.882;8.664;2022-07-21T04:07:36;10.43;;;6.07;;
13085;SDS011;6609;49.882;8.664;2022-07-21T04:10:05;8.80;;;5.93;;
13085;SDS011;6609;49.882;8.664;2022-07-21T04:12:34;6.90;;;5.83;;
13085;SDS011;6609;49.882;8.664;2022-07-21T04:15:01;6.17;;;5.33;;
13085;SDS011;6609;49.882;8.664;2022-07-21T04:17:28;5.93;;;5.33;;
13085;SDS011;6609;49.882;8.664;2022-07-21T04:19:55;7.17;;;5.63;;
13085;SDS011;6609;49.882;8.664;2022-07-21T04:22:22;7.40;;;5.73;;
13085;SDS011;6609;49.882;8.664;2022-07-21T04:24:49;6.83;;;5.70;;
13085;SDS011;6609;49.882;8.664;2022-07-21T04:27:16;6.53;;;5.40;;
13085;SDS011;6609;49.882;8.664;2022-07-21T04:29:44;5.97;;;5.37;;
13085;SDS011;6609;49.882;8.664;2022-07-21T04:32:10;6.73;;;5.60;;
13085;SDS011;6609;49.882;8.664;2022-07-21T04:34:37;7.43;;;5.57;;
13085;SDS011;6609;49.882;8.664;2022-07-21T04:37:05;8.17;;;5.23;;
13085;SDS011;6609;49.882;8.664;2022-07-21T04:39:32;6.93;;;4.77;;
13085;SDS011;6609;49.882;8.664;2022-07-21T04:41:58;7.33;;;5.30;;
13085;SDS011;6609;49.882;8.664;2022-07-21T04:44:25;7.07;;;5.20;;
13085;SDS011;6609;49.882;8.664;2022-07-21T04:46:54;10.07;;;4.90;;
13085;SDS011;6609;49.882;8.664;2022-07-21T04:49:20;8.23;;;5.53;;
13085;SDS011;6609;49.882;8.664;2022-07-21T04:51:47;5.13;;;4.27;;
13085;SDS011;6609;49.882;8.664;2022-07-21T04:54:15;7.73;;;4.67;;
13085;SDS011;6609;49.882;8.664;2022-07-21T04:56:42;6.40;;;4.97;;
13085;SDS011;6609;49.882;8.664;2022-07-21T04:59:09;6.67;;;4.87;;
13085;SDS011;6609;49.882;8.664;2022-07-21T05:01:37;5.50;;;4.60;;
13085;SDS011;6609;49.882;8.664;2022-07-21T05:04:05;8.57;;;5.83;;
13085;SDS011;6609;49.882;8.664;2022-07-21T05:06:33;7.27;;;4.97;;
13085;SDS011;6609;49.882;8.664;2022-07-21T05:09:00;5.73;;;4.77;;
13085;SDS011;6609;49.882;8.664;2022-07-21T05:11:27;6.27;;;4.17;;
13085;SDS011;6609;49.882;8.664;2022-07-21T05:13:54;5.87;;;4.50;;
13085;SDS011;6609;49.882;8.664;2022-07-21T05:16:22;5.83;;;4.33;;
13085;SDS011;6609;49.882;8.664;2022-07-21T05:18:49;6.33;;;4.90;;
13085;SDS011;6609;49.882;8.664;2022-07-21T05:21:17;5.13;;;4.47;;
13085;SDS011;6609;49.882;8.664;2022-07-21T05:23:44;5.63;;;4.87;;
13085;SDS011;6609;49.882;8.664;2022-07-21T05:26:12;7.37;;;4.90;;
13085;SDS011;6609;49.882;8.664;2022-07-21T05:28:39;9.23;;;5.63;;
13085;SDS011;6609;49.882;8.664;2022-07-21T05:31:06;7.93;;;4.63;;
13085;SDS011;6609;49.882;8.664;2022-07-21T05:33:33;6.40;;;4.97;;
13085;SDS011;6609;49.882;8.664;2022-07-21T05:36:01;5.97;;;5.10;;
13085;SDS011;6609;49.882;8.664;2022-07-21T05:38:29;5.93;;;5.20;;
13085;SDS011;6609;49.882;8.664;2022-07-21T05:40:57;6.87;;;5.23;;
13085;SDS011;6609;49.882;8.664;2022-07-21T05:43:27;6.10;;;4.87;;
13085;SDS011;6609;49.882;8.664;2022-07-21T05:45:55;5.93;;;5.13;;
13085;SDS011;6609;49.882;8.664;2022-07-21T05:48:22;4.93;;;4.40;;
13085;SDS011;6609;49.882;8.664;2022-07-21T05:50:49;7.83;;;5.30;;
13085;SDS011;6609;49.882;8.664;2022-07-21T05:53:16;5.93;;;4.70;;
13085;SDS011;6609;49.882;8.664;2022-07-21T05:55:44;9.53;;;5.47;;
13085;SDS011;6609;49.882;8.664;2022-07-21T05:58:11;5.90;;;4.40;;
13085;SDS011;6609;49.882;8.664;2022-07-21T06:00:37;5.80;;;4.47;;
13085;SDS011;6609;49.882;8.664;2022-07-21T06:03:04;6.80;;;4.80;;
13085;SDS011;6609;49.882;8.664;2022-07-21T06:05:31;6.43;;;4.90;;
13085;SDS011;6609;49.882;8.664;2022-07-21T06:07:58;5.77;;;4.70;;
13085;SDS011;6609;49.882;8.664;2022-07-21T06:10:26;6.77;;;4.67;;
13085;SDS011;6609;49.882;8.664;2022-07-21T06:12:54;6.40;;;4.80;;
13085;SDS011;6609;49.882;8.664;2022-07-21T06:15:21;7.63;;;4.97;;
13085;SDS011;6609;49.882;8.664;2022-07-21T06:17:47;7.47;;;4.97;;
13085;SDS011;6609;49.882;8.664;2022-07-21T06:20:14;7.77;;;5.13;;
13085;SDS011;6609;49.882;8.664;2022-07-21T06:22:41;8.13;;;5.67;;
13085;SDS011;6609;49.882;8.664;2022-07-21T06:25:08;7.33;;;4.97;;
13085;SDS011;6609;49.882;8.664;2022-07-21T06:27:35;7.60;;;5.50;;
13085;SDS011;6609;49.882;8.664;2022-07-21T06:30:04;7.60;;;4.93;;
13085;SDS011;6609;49.882;8.664;2022-07-21T06:32:32;7.27;;;5.77;;
13085;SDS011;6609;49.882;8.664;2022-07-21T06:34:58;9.07;;;5.40;;
13085;SDS011;6609;49.882;8.664;2022-07-21T06:37:25;6.40;;;5.17;;
13085;SDS011;6609;49.882;8.664;2022-07-21T06:39:53;7.17;;;5.20;;
13085;SDS011;6609;49.882;8.664;2022-07-21T06:42:19;8.00;;;4.93;;
13085;SDS011;6609;49.882;8.664;2022-07-21T06:44:46;6.93;;;5.13;;
13085;SDS011;6609;49.882;8.664;2022-07-21T06:47:14;6.47;;;5.20;;
13085;SDS011;6609;49.882;8.664;2022-07-21T06:49:41;6.73;;;5.37;;
13085;SDS011;6609;49.882;8.664;2022-07-21T06:52:07;6.97;;;5.33;;
13085;SDS011;6609;49.882;8.664;2022-07-21T06:54:34;7.17;;;5.37;;
13085;SDS011;6609;49.882;8.664;2022-07-21T06:57:02;6.57;;;5.33;;
13085;SDS011;6609;49.882;8.664;2022-07-21T06:59:28;7.23;;;5.23;;
13085;SDS011;6609;49.882;8.664;2022-07-21T07:01:55;7.47;;;5.00;;
13085;SDS011;6609;49.882;8.664;2022-07-21T07:04:25;6.73;;;5.07;;
13085;SDS011;6609;49.882;8.664;2022-07-21T07:06:52;4.43;;;3.97;;
13085;SDS011;6609;49.882;8.664;2022-07-21T07:09:20;7.70;;;4.37;;
13085;SDS011;6609;49.882;8.664;2022-07-21T07:11:47;4.83;;;4.27;;
13085;SDS011;6609;49.882;8.664;2022-07-21T07:14:17;7.33;;;4.30;;
13085;SDS011;6609;49.882;8.664;2022-07-21T07:16:43;7.50;;;4.10;;
13085;SDS011;6609;49.882;8.664;2022-07-21T07:19:11;5.77;;;4.33;;
13085;SDS011;6609;49.882;8.664;2022-07-21T07:21:38;4.23;;;3.83;;
13085;SDS011;6609;49.882;8.664;2022-07-21T07:24:05;5.63;;;4.63;;
13085;SDS011;6609;49.882;8.664;2022-07-21T07:26:32;7.27;;;4.53;;
13085;SDS011;6609;49.882;8.664;2022-07-21T07:28:59;5.57;;;4.33;;
13085;SDS011;6609;49.882;8.664;2022-07-21T07:31:27;6.00;;;4.37;;
13085;SDS011;6609;49.882;8.664;2022-07-21T07:33:53;6.97;;;4.53;;
13085;SDS011;6609;49.882;8.664;2022-07-21T07:36:22;6.50;;;4.87;;
13085;SDS011;6609;49.882;8.664;2022-07-21T07:38:50;7.43;;;5.20;;
13085;SDS011;6609;49.882;8.664;2022-07-21T07:41:17;6.23;;;4.73;;
13085;SDS011;6609;49.882;8.664;2022-07-21T07:43:43;5.47;;;4.97;;
13085;SDS011;6609;49.882;8.664;2022-07-21T07:46:10;9.07;;;4.80;;
13085;SDS011;6609;49.882;8.664;2022-07-21T07:48:38;5.93;;;4.60;;
13085;SDS011;6609;49.882;8.664;2022-07-21T07:51:05;7.00;;;5.10;;
13085;SDS011;6609;49.882;8.664;2022-07-21T07:53:32;5.73;;;4.67;;
13085;SDS011;6609;49.882;8.664;2022-07-21T07:56:01;6.73;;;5.10;;
13085;SDS011;6609;49.882;8.664;2022-07-21T07:58:28;6.03;;;5.13;;
13085;SDS011;6609;49.882;8.664;2022-07-21T08:00:54;5.43;;;4.93;;
13085;SDS011;6609;49.882;8.664;2022-07-21T08:03:22;7.33;;;5.33;;
13085;SDS011;6609;49.882;8.664;2022-07-21T08:05:49;6.53;;;5.03;;
13085;SDS011;6609;49.882;8.664;2022-07-21T08:08:16;7.33;;;5.07;;
13085;SDS011;6609;49.882;8.664;2022-07-21T08:10:43;5.63;;;4.50;;
13085;SDS011;6609;49.882;8.664;2022-07-21T08:13:13;5.83;;;4.57;;
13085;SDS011;6609;49.882;8.664;2022-07-21T08:15:41;6.43;;;4.57;;
13085;SDS011;6609;49.882;8.664;2022-07-21T08:18:08;5.47;;;4.93;;
13085;SDS011;6609;49.882;8.664;2022-07-21T08:20:35;5.47;;;4.90;;
13085;SDS011;6609;49.882;8.664;2022-07-21T08:23:03;6.03;;;4.73;;
13085;SDS011;6609;49.882;8.664;2022-07-21T08:25:30;7.07;;;5.27;;
13085;SDS011;6609;49.882;8.664;2022-07-21T08:27:57;7.27;;;5.33;;
13085;SDS011;6609;49.882;8.664;2022-07-21T08:30:25;11.63;;;6.03;;
13085;SDS011;6609;49.882;8.664;2022-07-21T08:32:52;7.63;;;5.77;;
13085;SDS011;6609;49.882;8.664;2022-07-21T08:35:19;8.27;;;6.43;;
13085;SDS011;6609;49.882;8.664;2022-07-21T08:37:52;10.57;;;6.80;;
13085;SDS011;6609;49.882;8.664;2022-07-21T08:40:22;8.07;;;6.30;;
13085;SDS011;6609;49.882;8.664;2022-07-21T08:42:50;9.50;;;6.70;;
13085;SDS011;6609;49.882;8.664;2022-07-21T08:45:18;9.47;;;6.47;;
13085;SDS011;6609;49.882;8.664;2022-07-21T08:47:46;8.83;;;6.80;;
13085;SDS011;6609;49.882;8.664;2022-07-21T08:50:16;6.97;;;6.27;;
13085;SDS011;6609;49.882;8.664;2022-07-21T08:52:43;6.97;;;5.93;;
13085;SDS011;6609;49.882;8.664;2022-07-21T08:55:10;7.83;;;6.10;;
13085;SDS011;6609;49.882;8.664;2022-07-21T08:57:39;9.67;;;6.87;;
13085;SDS011;6609;49.882;8.664;2022-07-21T09:00:06;6.10;;;5.50;;
13085;SDS011;6609;49.882;8.664;2022-07-21T09:02:34;9.10;;;5.67;;
13085;SDS011;6609;49.882;8.664;2022-07-21T09:05:04;5.90;;;4.50;;
13085;SDS011;6609;49.882;8.664;2022-07-21T09:07:46;5.20;;;4.70;;
13085;SDS011;6609;49.882;8.664;2022-07-21T09:10:13;8.50;;;5.07;;
13085;SDS011;6609;49.882;8.664;2022-07-21T09:12:47;7.77;;;5.07;;
13085;SDS011;6609;49.882;8.664;2022-07-21T09:15:15;7.97;;;4.77;;
13085;SDS011;6609;49.882;8.664;2022-07-21T09:17:44;7.30;;;4.57;;
13085;SDS011;6609;49.882;8.664;2022-07-21T09:20:21;6.03;;;4.17;;
13085;SDS011;6609;49.882;8.664;2022-07-21T09:23:02;5.07;;;4.57;;
13085;SDS011;6609;49.882;8.664;2022-07-21T09:25:34;4.97;;;4.10;;
13085;SDS011;6609;49.882;8.664;2022-07-21T09:28:10;5.80;;;3.63;;
13085;SDS011;6609;49.882;8.664;2022-07-21T09:30:55;3.83;;;3.30;;
13085;SDS011;6609;49.882;8.664;2022-07-21T09:33:24;6.20;;;3.70;;
13085;SDS011;6609;49.882;8.664;2022-07-21T09:35:55;4.10;;;3.30;;
13085;SDS011;6609;49.882;8.664;2022-07-21T09:38:25;4.27;;;3.63;;
13085;SDS011;6609;49.882;8.664;2022-07-21T09:40:53;3.63;;;2.97;;
13085;SDS011;6609;49.882;8.664;2022-07-21T09:43:34;4.60;;;3.40;;
13085;SDS011;6609;49.882;8.664;2022-07-21T09:46:07;5.07;;;3.33;;
13085;SDS011;6609;49.882;8.664;2022-07-21T09:48:36;5.40;;;3.50;;
13085;SDS011;6609;49.882;8.664;2022-07-21T09:51:28;5.73;;;3.77;;
13085;SDS011;6609;49.882;8.664;2022-07-21T09:53:59;4.77;;;4.10;;
13085;SDS011;6609;49.882;8.664;2022-07-21T09:56:28;4.37;;;3.97;;
13085;SDS011;6609;49.882;8.664;2022-07-21T09:58:56;7.30;;;4.53;;
13085;SDS011;6609;49.882;8.664;2022-07-21T10:01:25;8.17;;;4.73;;
13085;SDS011;6609;49.882;8.664;2022-07-21T10:03:53;8.73;;;5.90;;
13085;SDS011;6609;49.882;8.664;2022-07-21T10:06:22;9.47;;;5.23;;
13085;SDS011;6609;49.882;8.664;2022-07-21T10:08:54;7.87;;;5.17;;
13085;SDS011;6609;49.882;8.664;2022-07-21T10:11:22;5.07;;;4.50;;
13085;SDS011;6609;49.882;8.664;2022-07-21T10:13:49;5.30;;;4.80;;
13085;SDS011;6609;49.882;8.664;2022-07-21T10:16:16;5.90;;;4.93;;
13085;SDS011;6609;49.882;8.664;2022-07-21T10:18:47;5.20;;;4.60;;
13085;SDS011;6609;49.882;8.664;2022-07-21T10:21:23;6.23;;;4.33;;
13085;SDS011;6609;49.882;8.664;2022-07-21T10:23:58;4.60;;;4.20;;
13085;SDS011;6609;49.882;8.664;2022-07-21T10:26:25;4.93;;;4.20;;
13085;SDS011;6609;49.882;8.664;2022-07-21T10:28:52;5.10;;;4.13;;
13085;SDS011;6609;49.882;8.664;2022-07-21T10:31:20;4.53;;;3.73;;
13085;SDS011;6609;49.882;8.664;2022-07-21T10:33:52;6.20;;;3.83;;
13085;SDS011;6609;49.882;8.664;2022-07-21T10:36:40;5.23;;;3.70;;
13085;SDS011;6609;49.882;8.664;2022-07-21T10:39:25;5.77;;;3.93;;
13085;SDS011;6609;49.882;8.664;2022-07-21T10:41:53;4.20;;;3.80;;
13085;SDS011;6609;49.882;8.664;2022-07-21T10:44:45;4.07;;;3.67;;
13085;SDS011;6609;49.882;8.664;2022-07-21T10:47:14;5.73;;;4.40;;
13085;SDS011;6609;49.882;8.664;2022-07-21T10:49:44;4.33;;;3.93;;
13085;SDS011;6609;49.882;8.664;2022-07-21T10:55:26;4.53;;;3.47;;
13085;SDS011;6609;49.882;8.664;2022-07-21T10:58:11;4.53;;;3.47;;
13085;SDS011;6609;49.882;8.664;2022-07-21T11:00:44;5.03;;;3.60;;
13085;SDS011;6609;49.882;8.664;2022-07-21T11:03:13;4.07;;;3.67;;
13085;SDS011;6609;49.882;8.664;2022-07-21T11:08:48;5.03;;;3.63;;
13085;SDS011;6609;49.882;8.664;2022-07-21T11:11:20;4.40;;;3.43;;
13085;SDS011;6609;49.882;8.664;2022-07-21T11:13:57;4.93;;;3.33;;
13085;SDS011;6609;49.882;8.664;2022-07-21T11:19:34;4.57;;;3.40;;
13085;SDS011;6609;49.882;8.664;2022-07-21T11:22:04;3.23;;;2.93;;
13085;SDS011;6609;49.882;8.664;2022-07-21T11:24:32;3.70;;;3.30;;
13085;SDS011;6609;49.882;8.664;2022-07-21T11:27:02;3.60;;;2.60;;
13085;SDS011;6609;49.882;8.664;2022-07-21T11:29:30;3.13;;;2.43;;
13085;SDS011;6609;49.882;8.664;2022-07-21T11:31:58;3.50;;;2.43;;
13085;SDS011;6609;49.882;8.664;2022-07-21T11:34:36;4.00;;;2.47;;
13085;SDS011;6609;49.882;8.664;2022-07-21T11:37:09;3.40;;;2.70;;
13085;SDS011;6609;49.882;8.664;2022-07-21T11:39:37;3.50;;;2.60;;
13085;SDS011;6609;49.882;8.664;2022-07-21T11:42:07;4.07;;;2.50;;
13085;SDS011;6609;49.882;8.664;2022-07-21T11:44:36;4.30;;;2.73;;
13085;SDS011;6609;49.882;8.664;2022-07-21T11:47:03;3.37;;;2.30;;
13085;SDS011;6609;49.882;8.664;2022-07-21T11:49:31;3.77;;;2.50;;
13085;SDS011;6609;49.882;8.664;2022-07-21T11:51:59;3.10;;;2.27;;
13085;SDS011;6609;49.882;8.664;2022-07-21T11:54:29;2.33;;;2.10;;
13085;SDS011;6609;49.882;8.664;2022-07-21T11:56:57;2.30;;;2.10;;
13085;SDS011;6609;49.882;8.664;2022-07-21T11:59:27;3.50;;;2.40;;
13085;SDS011;6609;49.882;8.664;2022-07-21T12:01:56;5.27;;;2.10;;
13085;SDS011;6609;49.882;8.664;2022-07-21T12:04:28;2.80;;;2.10;;
13085;SDS011;6609;49.882;8.664;2022-07-21T12:07:04;2.37;;;2.17;;
13085;SDS011;6609;49.882;8.664;2022-07-21T12:09:33;2.77;;;2.30;;
13085;SDS011;6609;49.882;8.664;2022-07-21T12:12:00;2.77;;;2.50;;
13085;SDS011;6609;49.882;8.664;2022-07-21T12:14:44;2.60;;;2.40;;
13085;SDS011;6609;49.882;8.664;2022-07-21T12:17:14;3.00;;;2.50;;
13085;SDS011;6609;49.882;8.664;2022-07-21T12:19:42;3.03;;;2.70;;
13085;SDS011;6609;49.882;8.664;2022-07-21T12:22:10;4.13;;;2.90;;
13085;SDS011;6609;49.882;8.664;2022-07-21T12:24:47;6.90;;;2.70;;
13085;SDS011;6609;49.882;8.664;2022-07-21T12:27:18;3.07;;;2.73;;
13085;SDS011;6609;49.882;8.664;2022-07-21T12:29:47;3.60;;;2.70;;
13085;SDS011;6609;49.882;8.664;2022-07-21T12:32:38;5.60;;;3.10;;
13085;SDS011;6609;49.882;8.664;2022-07-21T12:35:15;4.23;;;3.20;;
13085;SDS011;6609;49.882;8.664;2022-07-21T12:37:53;4.30;;;3.33;;
13085;SDS011;6609;49.882;8.664;2022-07-21T12:40:22;4.07;;;3.67;;
13085;SDS011;6609;49.882;8.664;2022-07-21T12:42:50;3.30;;;3.00;;
13085;SDS011;6609;49.882;8.664;2022-07-21T12:45:29;6.87;;;3.23;;
13085;SDS011;6609;49.882;8.664;2022-07-21T12:48:05;4.57;;;3.23;;
13085;SDS011;6609;49.882;8.664;2022-07-21T12:50:34;4.80;;;3.20;;
13085;SDS011;6609;49.882;8.664;2022-07-21T12:53:03;3.87;;;3.43;;
13085;SDS011;6609;49.882;8.664;2022-07-21T12:55:30;3.60;;;3.30;;
13085;SDS011;6609;49.882;8.664;2022-07-21T12:57:57;4.87;;;3.90;;
13085;SDS011;6609;49.882;8.664;2022-07-21T13:00:24;3.80;;;3.50;;
13085;SDS011;6609;49.882;8.664;2022-07-21T13:02:53;4.13;;;3.10;;
13085;SDS011;6609;49.882;8.664;2022-07-21T13:05:21;5.17;;;4.07;;
13085;SDS011;6609;49.882;8.664;2022-07-21T13:07:48;3.93;;;3.53;;
13085;SDS011;6609;49.882;8.664;2022-07-21T13:10:15;4.53;;;3.73;;
13085;SDS011;6609;49.882;8.664;2022-07-21T13:12:43;4.70;;;3.70;;
13085;SDS011;6609;49.882;8.664;2022-07-21T13:15:11;4.10;;;3.60;;
13085;SDS011;6609;49.882;8.664;2022-07-21T13:17:39;4.67;;;4.20;;
13085;SDS011;6609;49.882;8.664;2022-07-21T13:20:07;4.30;;;3.90;;
13085;SDS011;6609;49.882;8.664;2022-07-21T13:22:35;5.80;;;3.90;;
13085;SDS011;6609;49.882;8.664;2022-07-21T13:25:01;4.57;;;3.87;;
13085;SDS011;6609;49.882;8.664;2022-07-21T13:27:28;4.77;;;3.80;;
13085;SDS011;6609;49.882;8.664;2022-07-21T13:29:56;6.10;;;3.77;;
13085;SDS011;6609;49.882;8.664;2022-07-21T13:32:22;7.87;;;4.30;;
13085;SDS011;6609;49.882;8.664;2022-07-21T13:34:49;5.67;;;3.80;;
13085;SDS011;6609;49.882;8.664;2022-07-21T13:37:17;5.20;;;3.90;;
13085;SDS011;6609;49.882;8.664;2022-07-21T13:39:44;5.80;;;4.33;;
13085;SDS011;6609;49.882;8.664;2022-07-21T13:42:11;6.53;;;4.23;;
13085;SDS011;6609;49.882;8.664;2022-07-21T13:44:38;4.30;;;3.80;;
13085;SDS011;6609;49.882;8.664;2022-07-21T13:47:05;4.60;;;4.13;;
13085;SDS011;6609;49.882;8.664;2022-07-21T13:49:31;6.33;;;4.30;;
13085;SDS011;6609;49.882;8.664;2022-07-21T13:51:58;4.73;;;3.80;;
13085;SDS011;6609;49.882;8.664;2022-07-21T13:54:26;5.47;;;4.87;;
13085;SDS011;6609;49.882;8.664;2022-07-21T13:56:53;5.37;;;4.10;;
13085;SDS011;6609;49.882;8.664;2022-07-21T13:59:21;10.97;;;4.60;;
13085;SDS011;6609;49.882;8.664;2022-07-21T14:01:48;5.50;;;4.47;;
13085;SDS011;6609;49.882;8.664;2022-07-21T14:04:15;5.70;;;4.20;;
13085;SDS011;6609;49.882;8.664;2022-07-21T14:06:42;7.30;;;4.70;;
13085;SDS011;6609;49.882;8.664;2022-07-21T14:09:11;6.03;;;5.40;;
13085;SDS011;6609;49.882;8.664;2022-07-21T14:11:39;6.33;;;5.13;;
13085;SDS011;6609;49.882;8.664;2022-07-21T14:14:06;6.47;;;4.57;;
13085;SDS011;6609;49.882;8.664;2022-07-21T14:16:33;6.07;;;4.60;;
13085;SDS011;6609;49.882;8.664;2022-07-21T14:19:00;6.57;;;5.50;;
13085;SDS011;6609;49.882;8.664;2022-07-21T14:21:27;5.33;;;4.73;;
13085;SDS011;6609;49.882;8.664;2022-07-21T14:23:53;5.40;;;4.90;;
13085;SDS011;6609;49.882;8.664;2022-07-21T14:26:34;6.30;;;4.77;;
13085;SDS011;6609;49.882;8.664;2022-07-21T14:29:04;4.67;;;4.23;;
13085;SDS011;6609;49.882;8.664;2022-07-21T14:31:31;5.63;;;4.70;;
13085;SDS011;6609;49.882;8.664;2022-07-21T14:33:58;6.10;;;4.53;;
13085;SDS011;6609;49.882;8.664;2022-07-21T14:36:25;5.37;;;4.23;;
13085;SDS011;6609;49.882;8.664;2022-07-21T14:38:52;5.27;;;4.70;;
13085;SDS011;6609;49.882;8.664;2022-07-21T14:41:19;5.17;;;4.50;;
13085;SDS011;6609;49.882;8.664;2022-07-21T14:43:46;5.57;;;4.00;;
13085;SDS011;6609;49.882;8.664;2022-07-21T14:46:16;4.63;;;3.60;;
13085;SDS011;6609;49.882;8.664;2022-07-21T14:48:43;4.97;;;3.97;;
13085;SDS011;6609;49.882;8.664;2022-07-21T14:51:10;4.43;;;4.03;;
13085;SDS011;6609;49.882;8.664;2022-07-21T14:53:36;7.70;;;3.90;;
13085;SDS011;6609;49.882;8.664;2022-07-21T14:56:04;5.00;;;3.93;;
13085;SDS011;6609;49.882;8.664;2022-07-21T14:58:30;5.73;;;3.60;;
13085;SDS011;6609;49.882;8.664;2022-07-21T15:00:57;7.33;;;3.90;;
13085;SDS011;6609;49.882;8.664;2022-07-21T15:03:25;7.33;;;4.43;;
13085;SDS011;6609;49.882;8.664;2022-07-21T15:05:52;4.77;;;4.37;;
13085;SDS011;6609;49.882;8.664;2022-07-21T15:08:19;4.50;;;4.10;;
13085;SDS011;6609;49.882;8.664;2022-07-21T15:10:46;4.73;;;3.90;;
13085;SDS011;6609;49.882;8.664;2022-07-21T15:13:14;5.87;;;3.73;;